Gossett, Illinois
Current Conditions -  °F | °C
As of 3:35 AM on Monday 20 Oct 2014 (Local Time) from KCUL Reporting Station
Broken Clouds Broken Clouds  
Wind Chill: 50°   Ceiling: 11000
Heat Index: 50°   Visibility: 10mi
Dew Point: 49°   Wind: 6mph
Humidity: 94%   Direction: 180°S
Pressure: 30.02"   Gusts: NA
Location:  37.9739°N, 88.3193°W
Report Text: KCUL 200835Z AUTO 18005KT 10SM BKN110 10/09 A3002 RMK AO2 T01010092
Loading
Personal Weather Stations






























Interactive Weather Map New forecast layout! Learn more

10-Day Weather Forecast

Advertisements
Track Severe Weather on mobile